createdAt,value
2018-03-29T00:02:03.871Z,1.40
2018-03-29T00:04:31.713Z,2.03
2018-03-29T00:06:59.117Z,1.93
2018-03-29T00:09:26.742Z,2.13
2018-03-29T00:11:54.362Z,1.50
2018-03-29T00:14:21.263Z,1.20
2018-03-29T00:16:48.911Z,1.10
2018-03-29T00:19:15.728Z,1.20
2018-03-29T00:21:42.615Z,1.63
2018-03-29T00:24:09.848Z,1.93
2018-03-29T00:26:36.777Z,1.37
2018-03-29T00:29:04.593Z,1.63
2018-03-29T00:31:31.560Z,1.67
2018-03-29T00:33:58.504Z,1.43
2018-03-29T00:36:25.648Z,1.20
2018-03-29T00:38:52.406Z,1.40
2018-03-29T00:41:19.989Z,1.60
2018-03-29T00:43:47.634Z,1.30
2018-03-29T00:46:16.196Z,1.53
2018-03-29T00:48:43.198Z,1.60
2018-03-29T00:51:11.629Z,1.70
2018-03-29T00:53:44.441Z,2.60
2018-03-29T00:56:12.261Z,1.40
2018-03-29T00:58:39.257Z,1.73
2018-03-29T01:01:06.220Z,1.40
2018-03-29T01:03:33.676Z,1.70
2018-03-29T01:06:00.682Z,1.60
2018-03-29T01:08:33.076Z,6.20
2018-03-29T01:10:59.985Z,1.50
2018-03-29T01:13:27.609Z,1.83
2018-03-29T01:15:54.920Z,1.90
2018-03-29T01:18:21.823Z,1.47
2018-03-29T01:20:49.389Z,1.80
2018-03-29T01:23:16.544Z,1.40
2018-03-29T01:25:44.404Z,1.63
2018-03-29T01:28:11.230Z,2.07
2018-03-29T01:30:38.059Z,1.50
2018-03-29T01:33:05.683Z,1.97
2018-03-29T01:35:32.719Z,1.67
2018-03-29T01:38:00.405Z,1.50
2018-03-29T01:40:27.448Z,2.00
2018-03-29T01:42:54.905Z,1.93
2018-03-29T01:45:22.030Z,2.00
2018-03-29T01:47:49.052Z,2.23
2018-03-29T01:50:16.064Z,1.97
2018-03-29T01:52:43.224Z,2.10
2018-03-29T01:55:10.903Z,1.73
2018-03-29T01:57:37.833Z,2.17
2018-03-29T02:00:07.273Z,1.90
2018-03-29T02:02:34.189Z,2.40
2018-03-29T02:05:01.418Z,2.33
2018-03-29T02:07:28.376Z,2.10
2018-03-29T02:09:56.070Z,1.90
2018-03-29T02:12:23.025Z,2.07
2018-03-29T02:14:49.998Z,2.17
2018-03-29T02:17:17.636Z,2.30
2018-03-29T02:19:44.695Z,2.40
2018-03-29T02:22:12.615Z,2.60
2018-03-29T02:24:39.462Z,2.53
2018-03-29T02:27:07.117Z,2.20
2018-03-29T02:29:34.252Z,2.47
2018-03-29T02:32:08.682Z,2.10
2018-03-29T02:34:36.268Z,2.50
2018-03-29T02:37:04.149Z,2.53
2018-03-29T02:39:31.036Z,2.50
2018-03-29T02:41:57.909Z,2.50
2018-03-29T02:44:25.581Z,2.60
2018-03-29T02:46:52.369Z,2.57
2018-03-29T02:49:19.772Z,2.60
2018-03-29T02:51:46.712Z,2.60
2018-03-29T02:54:15.192Z,2.80
2018-03-29T02:56:42.173Z,2.83
2018-03-29T02:59:10.684Z,2.90
2018-03-29T03:01:37.532Z,2.53
2018-03-29T03:04:05.157Z,2.40
2018-03-29T03:06:31.997Z,2.53
2018-03-29T03:08:59.746Z,2.70
2018-03-29T03:11:26.824Z,2.47
2018-03-29T03:13:53.653Z,2.83
2018-03-29T03:16:20.917Z,2.50
2018-03-29T03:18:47.874Z,2.30
2018-03-29T03:21:15.472Z,2.00
2018-03-29T03:23:43.123Z,2.50
2018-03-29T03:26:11.134Z,2.20
2018-03-29T03:28:37.929Z,2.33
2018-03-29T03:31:05.607Z,2.67
2018-03-29T03:33:32.641Z,2.43
2018-03-29T03:35:59.495Z,2.30
2018-03-29T03:38:27.272Z,1.87
2018-03-29T03:40:54.104Z,2.40
2018-03-29T03:43:21.776Z,2.57
2018-03-29T03:45:48.828Z,2.70
2018-03-29T03:48:16.687Z,2.63
2018-03-29T03:50:43.650Z,2.43
2018-03-29T03:53:10.546Z,2.40
2018-03-29T03:55:38.476Z,1.90
2018-03-29T03:58:05.418Z,2.10
2018-03-29T04:00:32.421Z,1.70
2018-03-29T04:02:59.426Z,1.60
2018-03-29T04:05:26.959Z,1.73
2018-03-29T04:07:53.748Z,1.43
2018-03-29T04:10:22.048Z,2.03
2018-03-29T04:12:49.811Z,3.03
2018-03-29T04:15:18.225Z,1.50
2018-03-29T04:17:45.168Z,1.60
2018-03-29T04:20:12.072Z,1.40
2018-03-29T04:22:39.176Z,1.40
2018-03-29T04:25:06.068Z,1.63
2018-03-29T04:27:33.778Z,1.40
2018-03-29T04:30:00.690Z,1.20
2018-03-29T04:32:28.466Z,1.40
2018-03-29T04:34:55.319Z,1.47
2018-03-29T04:37:23.138Z,1.87
2018-03-29T04:39:50.032Z,1.30
2018-03-29T04:42:16.948Z,1.80
2018-03-29T04:44:44.199Z,1.60
2018-03-29T04:47:11.095Z,1.40
2018-03-29T04:49:38.877Z,1.80
2018-03-29T04:52:06.569Z,1.50
2018-03-29T04:54:34.196Z,1.63
2018-03-29T04:57:01.187Z,1.57
2018-03-29T04:59:28.189Z,2.23
2018-03-29T05:01:55.588Z,1.53
2018-03-29T05:04:22.448Z,1.67
2018-03-29T05:06:50.078Z,1.30
2018-03-29T05:09:18.141Z,2.00
2018-03-29T05:11:46.032Z,1.67
2018-03-29T05:14:13.784Z,2.03
2018-03-29T05:16:41.351Z,1.80
2018-03-29T05:19:08.257Z,2.00
2018-03-29T05:21:35.247Z,2.00
2018-03-29T05:24:02.513Z,1.97
2018-03-29T05:26:35.601Z,1.90
2018-03-29T05:29:03.569Z,2.50
2018-03-29T05:31:30.636Z,1.90
2018-03-29T05:33:58.282Z,1.93
2018-03-29T05:36:25.249Z,2.10
2018-03-29T05:38:53.128Z,2.07
2018-03-29T05:41:20.982Z,2.30
2018-03-29T05:43:48.532Z,2.30
2018-03-29T05:46:15.394Z,2.07
2018-03-29T05:48:42.561Z,1.63
2018-03-29T05:51:09.807Z,1.63
2018-03-29T05:53:36.684Z,1.93
2018-03-29T05:56:05.034Z,1.63
2018-03-29T05:58:31.886Z,1.80
2018-03-29T06:00:59.544Z,2.00
2018-03-29T06:03:26.485Z,1.73
2018-03-29T06:05:53.422Z,1.63
2018-03-29T06:08:21.416Z,7.83
2018-03-29T06:10:48.386Z,7.93
2018-03-29T06:13:15.947Z,11.47
2018-03-29T06:15:42.997Z,12.40
2018-03-29T06:18:12.911Z,10.87
2018-03-29T06:20:39.796Z,5.20
2018-03-29T06:23:07.554Z,6.87
2018-03-29T06:25:34.429Z,11.17
2018-03-29T06:28:02.149Z,10.47
2018-03-29T06:30:29.013Z,11.03
2018-03-29T06:32:57.440Z,10.60
2018-03-29T06:35:24.435Z,10.13
2018-03-29T06:37:51.325Z,9.13
2018-03-29T06:40:18.762Z,8.77
2018-03-29T06:42:46.524Z,9.53
2018-03-29T06:45:13.920Z,8.43
2018-03-29T06:47:40.820Z,9.63
2018-03-29T06:50:08.585Z,9.10
2018-03-29T06:52:35.633Z,9.43
2018-03-29T06:55:02.500Z,9.30
2018-03-29T06:57:29.884Z,8.90
2018-03-29T06:59:57.630Z,10.30
2018-03-29T07:02:25.748Z,10.33
2018-03-29T07:04:52.739Z,10.33
2018-03-29T07:07:20.507Z,9.80
2018-03-29T07:09:47.357Z,11.20
2018-03-29T07:12:15.044Z,10.83
2018-03-29T07:14:42.651Z,17.23
2018-03-29T07:17:10.285Z,12.97
2018-03-29T07:19:38.034Z,12.93
2018-03-29T07:22:04.969Z,13.73
2018-03-29T07:24:31.934Z,14.90
2018-03-29T07:26:59.645Z,15.43
2018-03-29T07:29:26.634Z,14.20
2018-03-29T07:31:54.307Z,15.63
2018-03-29T07:34:21.266Z,12.77
2018-03-29T07:36:48.781Z,14.43
2018-03-29T07:39:15.811Z,15.20
2018-03-29T07:41:43.499Z,14.13
2018-03-29T07:44:10.347Z,14.73
2018-03-29T07:46:37.900Z,14.10
2018-03-29T07:49:05.270Z,16.50
2018-03-29T07:51:32.181Z,13.97
2018-03-29T07:53:59.504Z,12.37
2018-03-29T07:56:26.328Z,12.10
2018-03-29T07:58:54.142Z,12.97
2018-03-29T08:01:21.099Z,13.17
2018-03-29T08:03:48.763Z,12.60
2018-03-29T08:06:15.835Z,12.43
2018-03-29T08:08:43.577Z,13.23
2018-03-29T08:11:10.641Z,12.30
2018-03-29T08:13:38.225Z,10.80
2018-03-29T08:16:05.863Z,15.70
2018-03-29T08:18:33.513Z,13.97
2018-03-29T08:21:00.360Z,12.87
2018-03-29T08:23:27.168Z,11.43
2018-03-29T08:25:54.413Z,11.43
2018-03-29T08:28:22.061Z,12.53
2018-03-29T08:30:49.621Z,12.27
2018-03-29T08:33:16.564Z,11.43
2018-03-29T08:35:44.135Z,12.17
2018-03-29T08:38:11.104Z,10.70
2018-03-29T08:40:39.429Z,10.77
2018-03-29T08:43:06.523Z,10.77
2018-03-29T08:45:34.194Z,10.10
2018-03-29T08:48:01.158Z,10.17
2018-03-29T08:50:29.523Z,10.37
2018-03-29T08:52:56.483Z,9.70
2018-03-29T08:55:24.857Z,9.50
2018-03-29T08:57:51.902Z,9.37
2018-03-29T09:00:19.571Z,9.67
2018-03-29T09:02:46.661Z,9.13
2018-03-29T09:05:14.409Z,9.57
2018-03-29T09:07:42.057Z,9.03
2018-03-29T09:10:09.626Z,8.90
2018-03-29T09:12:36.684Z,8.57
2018-03-29T09:15:04.537Z,9.43
2018-03-29T09:17:31.605Z,9.30
2018-03-29T09:19:58.550Z,8.83
2018-03-29T09:22:25.924Z,8.10
2018-03-29T09:24:52.861Z,8.17
2018-03-29T09:27:20.074Z,9.00
2018-03-29T09:29:46.928Z,10.13
2018-03-29T09:32:14.635Z,8.30
2018-03-29T09:34:41.692Z,9.40
2018-03-29T09:37:09.513Z,9.67
2018-03-29T09:39:36.753Z,9.10
2018-03-29T09:42:05.147Z,8.67
2018-03-29T09:44:32.200Z,12.30
2018-03-29T09:46:59.265Z,9.77
2018-03-29T09:49:26.206Z,9.30
2018-03-29T09:51:53.099Z,9.07
2018-03-29T09:54:20.764Z,11.10
2018-03-29T09:56:47.727Z,10.60
2018-03-29T09:59:14.499Z,9.50
2018-03-29T10:01:43.059Z,8.87
2018-03-29T10:04:12.058Z,13.67
2018-03-29T10:06:41.560Z,15.83
2018-03-29T10:09:08.519Z,15.70
2018-03-29T10:11:35.395Z,15.10
2018-03-29T10:14:02.566Z,15.17
2018-03-29T10:16:29.501Z,15.20
2018-03-29T10:18:57.432Z,15.43
2018-03-29T10:21:24.405Z,15.50
2018-03-29T10:23:52.018Z,15.63
2018-03-29T10:26:18.907Z,14.30
2018-03-29T10:28:46.577Z,15.20
2018-03-29T10:31:13.628Z,14.57
2018-03-29T10:33:40.624Z,14.57
2018-03-29T10:36:08.149Z,13.17
2018-03-29T10:38:35.055Z,14.73
2018-03-29T10:41:02.841Z,13.60
2018-03-29T10:43:29.802Z,12.93
2018-03-29T10:45:56.704Z,13.53
2018-03-29T10:48:23.705Z,12.67
2018-03-29T10:50:51.525Z,11.87
2018-03-29T10:53:19.358Z,10.93
2018-03-29T10:55:46.224Z,12.13
2018-03-29T10:58:14.504Z,11.40
2018-03-29T11:00:42.345Z,10.17
2018-03-29T11:03:10.050Z,9.23
2018-03-29T11:05:37.104Z,8.53
2018-03-29T11:08:04.679Z,7.30
2018-03-29T11:10:31.571Z,7.43
2018-03-29T11:12:59.333Z,6.63
2018-03-29T11:15:26.300Z,6.13
2018-03-29T11:17:53.356Z,6.10
2018-03-29T11:20:20.730Z,5.27
2018-03-29T11:22:48.322Z,4.33
2018-03-29T11:25:15.483Z,4.77
2018-03-29T11:27:42.404Z,4.40
2018-03-29T11:30:10.692Z,4.40
2018-03-29T11:32:38.427Z,4.47
2018-03-29T11:35:05.890Z,6.70
2018-03-29T11:37:32.784Z,4.50
2018-03-29T11:40:00.726Z,4.97
2018-03-29T11:42:27.714Z,3.70
2018-03-29T11:44:55.334Z,3.67
2018-03-29T11:47:22.231Z,3.63
2018-03-29T11:49:49.821Z,4.17
2018-03-29T11:52:17.005Z,3.50
2018-03-29T11:54:44.581Z,3.17
2018-03-29T11:57:12.140Z,3.80
2018-03-29T11:59:39.835Z,4.50
2018-03-29T12:02:07.432Z,5.07
2018-03-29T12:04:35.148Z,5.17
2018-03-29T12:07:02.919Z,5.47
2018-03-29T12:09:30.728Z,5.50
2018-03-29T12:11:57.770Z,4.80
2018-03-29T12:14:25.506Z,4.47
2018-03-29T12:16:53.182Z,4.07
2018-03-29T12:19:21.516Z,4.60
2018-03-29T12:21:48.488Z,4.70
2018-03-29T12:24:15.400Z,5.03
2018-03-29T12:26:43.515Z,4.30
2018-03-29T12:29:10.477Z,7.20
2018-03-29T12:31:37.582Z,4.60
2018-03-29T12:34:04.400Z,4.30
2018-03-29T12:36:32.759Z,4.70
2018-03-29T12:38:59.700Z,4.70
2018-03-29T12:41:27.383Z,4.93
2018-03-29T12:43:54.318Z,4.80
2018-03-29T12:46:22.092Z,4.53
2018-03-29T12:48:49.015Z,3.80
2018-03-29T12:51:16.686Z,4.83
2018-03-29T12:53:43.658Z,11.23
2018-03-29T12:56:21.815Z,3.93
2018-03-29T12:58:49.545Z,4.00
2018-03-29T13:01:16.423Z,8.80
2018-03-29T13:03:43.332Z,5.60
2018-03-29T13:06:10.524Z,4.07
2018-03-29T13:08:37.395Z,3.87
2018-03-29T13:11:04.842Z,4.23
2018-03-29T13:13:31.737Z,4.30
2018-03-29T13:15:59.481Z,4.20
2018-03-29T13:18:26.475Z,3.67
2018-03-29T13:20:54.190Z,3.40
2018-03-29T13:23:21.008Z,3.70
2018-03-29T13:25:49.520Z,3.73
2018-03-29T13:28:16.365Z,4.60
2018-03-29T13:30:44.068Z,4.60
2018-03-29T13:33:10.946Z,3.73
2018-03-29T13:35:37.841Z,3.57
2018-03-29T13:38:05.240Z,3.07
2018-03-29T13:40:32.280Z,3.30
2018-03-29T13:42:59.740Z,4.50
2018-03-29T13:45:26.705Z,2.80
2018-03-29T13:47:54.342Z,3.60
2018-03-29T13:50:21.430Z,3.53
2018-03-29T13:52:49.169Z,2.83
2018-03-29T13:55:15.979Z,2.80
2018-03-29T13:57:42.893Z,2.63
2018-03-29T14:00:10.454Z,2.97
2018-03-29T14:02:37.506Z,3.17
2018-03-29T14:05:05.294Z,2.93
2018-03-29T14:07:32.908Z,2.30
2018-03-29T14:10:00.589Z,3.07
2018-03-29T14:12:27.767Z,4.37
2018-03-29T14:14:55.482Z,2.97
2018-03-29T14:17:22.291Z,4.53
2018-03-29T14:19:49.341Z,2.73
2018-03-29T14:22:16.797Z,3.33
2018-03-29T14:24:43.652Z,2.20
2018-03-29T14:27:11.404Z,5.80
2018-03-29T14:29:38.461Z,6.40
2018-03-29T14:32:05.445Z,3.53
2018-03-29T14:34:32.632Z,4.83
2018-03-29T14:36:59.551Z,3.50
2018-03-29T14:39:26.514Z,4.40
2018-03-29T14:41:54.085Z,2.70
2018-03-29T14:44:21.012Z,3.70
2018-03-29T14:46:49.427Z,2.73
2018-03-29T14:49:17.304Z,2.80
2018-03-29T14:51:44.133Z,9.80
2018-03-29T14:54:11.867Z,2.53
2018-03-29T14:56:39.181Z,4.40
2018-03-29T14:59:06.064Z,3.17
2018-03-29T15:01:33.868Z,2.30
2018-03-29T15:04:01.552Z,2.33
2018-03-29T15:06:29.294Z,4.10
2018-03-29T15:08:56.935Z,3.13
2018-03-29T15:11:24.763Z,3.20
2018-03-29T15:13:51.908Z,3.07
2018-03-29T15:16:18.759Z,2.90
2018-03-29T15:18:45.862Z,3.90
2018-03-29T15:21:13.412Z,4.33
2018-03-29T15:23:40.498Z,3.57
2018-03-29T15:26:08.276Z,3.23
2018-03-29T15:28:36.122Z,3.23
2018-03-29T15:31:03.093Z,2.67
2018-03-29T15:33:31.777Z,2.80
2018-03-29T15:35:58.788Z,2.50
2018-03-29T15:38:25.669Z,3.57
2018-03-29T15:40:53.501Z,1.80
2018-03-29T15:43:20.380Z,3.37
2018-03-29T15:45:48.128Z,2.20
2018-03-29T15:48:15.024Z,8.37
2018-03-29T15:50:42.672Z,1.63
2018-03-29T15:53:09.815Z,2.43
2018-03-29T15:55:36.771Z,3.13
2018-03-29T15:58:04.654Z,2.33
2018-03-29T16:00:31.903Z,2.57
2018-03-29T16:02:59.019Z,1.90
2018-03-29T16:05:26.723Z,2.07
2018-03-29T16:07:53.749Z,2.27
2018-03-29T16:10:20.840Z,2.50
2018-03-29T16:12:48.505Z,1.87
2018-03-29T16:15:15.522Z,3.03
2018-03-29T16:17:43.309Z,2.30
2018-03-29T16:20:10.165Z,2.80
2018-03-29T16:22:37.148Z,3.10
2018-03-29T16:25:04.428Z,2.10
2018-03-29T16:27:31.563Z,3.17
2018-03-29T16:29:58.441Z,2.77
2018-03-29T16:32:25.687Z,2.30
2018-03-29T16:34:52.611Z,2.30
2018-03-29T16:37:20.865Z,2.07
2018-03-29T16:39:47.872Z,1.93
2018-03-29T16:42:15.528Z,2.93
2018-03-29T16:44:42.662Z,3.50
2018-03-29T16:47:10.312Z,4.63
2018-03-29T16:49:37.661Z,1.50
2018-03-29T16:52:04.697Z,3.30
2018-03-29T16:54:32.542Z,1.67
2018-03-29T16:56:59.498Z,2.40
2018-03-29T16:59:26.603Z,1.90
2018-03-29T17:01:54.295Z,2.23
2018-03-29T17:04:21.198Z,1.80
2018-03-29T17:06:49.030Z,1.93
2018-03-29T17:09:15.994Z,3.70
2018-03-29T17:11:44.608Z,1.60
2018-03-29T17:14:11.668Z,1.60
2018-03-29T17:16:38.714Z,1.60
2018-03-29T17:19:06.069Z,1.70
2018-03-29T17:21:33.262Z,1.77
2018-03-29T17:24:01.120Z,1.73
2018-03-29T17:26:29.005Z,2.00
2018-03-29T17:28:57.093Z,1.63
2018-03-29T17:31:24.863Z,1.90
2018-03-29T17:33:52.299Z,1.70
2018-03-29T17:36:19.333Z,1.70
2018-03-29T17:38:47.205Z,1.50
2018-03-29T17:41:14.302Z,3.37
2018-03-29T17:43:42.748Z,1.67
2018-03-29T17:46:09.696Z,1.33
2018-03-29T17:48:37.353Z,1.70
2018-03-29T17:51:04.284Z,1.53
2018-03-29T17:53:31.348Z,1.83
2018-03-29T17:55:59.353Z,1.63
2018-03-29T17:58:26.324Z,2.80
2018-03-29T18:00:54.798Z,2.30
2018-03-29T18:03:22.545Z,2.73
2018-03-29T18:05:50.421Z,2.00
2018-03-29T18:08:17.275Z,2.50
2018-03-29T18:10:44.202Z,2.40
2018-03-29T18:13:11.744Z,2.53
2018-03-29T18:15:38.745Z,2.43
2018-03-29T18:18:07.113Z,2.87
2018-03-29T18:20:34.208Z,2.77
2018-03-29T18:23:01.986Z,3.87
2018-03-29T18:25:29.005Z,4.33
2018-03-29T18:27:56.689Z,2.27
2018-03-29T18:30:24.344Z,1.80
2018-03-29T18:32:52.082Z,3.30
2018-03-29T18:35:19.762Z,2.43
2018-03-29T18:37:46.713Z,2.77
2018-03-29T18:40:13.666Z,3.93
2018-03-29T18:42:41.613Z,5.20
2018-03-29T18:45:08.804Z,3.30
2018-03-29T18:47:36.864Z,3.33
2018-03-29T18:50:03.922Z,3.23
2018-03-29T18:52:31.586Z,2.80
2018-03-29T18:54:58.770Z,3.90
2018-03-29T18:57:27.372Z,2.50
2018-03-29T18:59:54.553Z,5.83
2018-03-29T19:02:22.366Z,2.27
2018-03-29T19:04:49.561Z,2.00
2018-03-29T19:07:18.201Z,4.90
2018-03-29T19:09:45.941Z,3.63
2018-03-29T19:12:12.914Z,2.20
2018-03-29T19:14:40.200Z,3.20
2018-03-29T19:17:08.014Z,2.00
2018-03-29T19:19:35.830Z,4.00
2018-03-29T19:22:02.870Z,2.87
2018-03-29T19:24:30.670Z,2.97
2018-03-29T19:26:58.524Z,2.50
2018-03-29T19:29:26.257Z,3.30
2018-03-29T19:31:53.194Z,2.53
2018-03-29T19:34:20.029Z,2.93
2018-03-29T19:36:53.871Z,2.20
2018-03-29T19:39:21.046Z,2.87
2018-03-29T19:41:48.444Z,2.50
2018-03-29T19:44:15.622Z,1.97
2018-03-29T19:46:42.712Z,2.63
2018-03-29T19:49:10.381Z,2.27
2018-03-29T19:51:37.221Z,2.47
2018-03-29T19:54:04.989Z,2.00
2018-03-29T19:56:32.039Z,2.40
2018-03-29T19:58:58.997Z,2.20
2018-03-29T20:01:26.351Z,2.50
2018-03-29T20:03:53.412Z,2.33
2018-03-29T20:06:21.173Z,2.60
2018-03-29T20:08:48.086Z,2.73
2018-03-29T20:11:15.152Z,2.27
2018-03-29T20:13:42.507Z,2.53
2018-03-29T20:16:09.512Z,2.60
2018-03-29T20:18:37.779Z,7.00
2018-03-29T20:21:04.937Z,3.70
2018-03-29T20:23:32.598Z,2.60
2018-03-29T20:25:59.691Z,3.00
2018-03-29T20:28:27.357Z,4.03
2018-03-29T20:30:54.460Z,4.27
2018-03-29T20:33:21.424Z,3.53
2018-03-29T20:35:48.835Z,4.10
2018-03-29T20:38:15.822Z,3.00
2018-03-29T20:40:43.600Z,5.53
2018-03-29T20:43:10.448Z,3.83
2018-03-29T20:45:37.486Z,3.60
2018-03-29T20:48:05.265Z,2.53
2018-03-29T20:50:32.351Z,3.40
2018-03-29T20:53:00.760Z,2.93
2018-03-29T20:55:27.856Z,2.67
2018-03-29T20:57:54.825Z,2.93
2018-03-29T21:00:22.680Z,4.20
2018-03-29T21:02:50.456Z,5.23
2018-03-29T21:05:18.107Z,3.50
2018-03-29T21:07:45.066Z,2.80
2018-03-29T21:10:12.031Z,2.70
2018-03-29T21:12:39.501Z,2.83
2018-03-29T21:15:07.161Z,2.20
2018-03-29T21:17:34.905Z,2.30
2018-03-29T21:20:01.960Z,3.27
2018-03-29T21:22:29.699Z,2.77
2018-03-29T21:24:56.864Z,2.43
2018-03-29T21:27:23.838Z,3.00
2018-03-29T21:29:51.510Z,2.27
2018-03-29T21:32:18.467Z,2.60
2018-03-29T21:34:46.821Z,1.73
2018-03-29T21:37:13.843Z,1.80
2018-03-29T21:39:40.741Z,2.27
2018-03-29T21:42:08.672Z,4.23
2018-03-29T21:44:35.886Z,2.63
2018-03-29T21:47:02.841Z,2.73
2018-03-29T21:49:31.053Z,1.50
2018-03-29T21:51:57.963Z,1.70
2018-03-29T21:54:25.664Z,2.80
2018-03-29T21:56:52.571Z,2.00
2018-03-29T21:59:19.554Z,2.23
2018-03-29T22:01:47.084Z,5.20
2018-03-29T22:04:14.128Z,1.43
2018-03-29T22:06:41.960Z,2.30
2018-03-29T22:09:09.062Z,1.70
2018-03-29T22:11:36.979Z,1.83
2018-03-29T22:14:04.200Z,2.20
2018-03-29T22:16:31.158Z,2.80
2018-03-29T22:18:58.891Z,1.80
2018-03-29T22:21:25.764Z,2.10
2018-03-29T22:23:54.647Z,1.90
2018-03-29T22:26:21.657Z,1.63
2018-03-29T22:28:49.370Z,2.43
2018-03-29T22:31:16.417Z,2.27
2018-03-29T22:33:43.483Z,2.10
2018-03-29T22:36:10.635Z,1.70
2018-03-29T22:38:37.579Z,3.87
2018-03-29T22:41:05.167Z,1.70
2018-03-29T22:43:32.788Z,2.20
2018-03-29T22:46:00.625Z,1.70
2018-03-29T22:48:27.642Z,1.40
2018-03-29T22:50:54.592Z,2.27
2018-03-29T22:53:22.038Z,1.60
2018-03-29T22:55:49.209Z,1.40
2018-03-29T22:58:16.853Z,1.40
2018-03-29T23:00:43.825Z,1.70
2018-03-29T23:03:10.775Z,2.30
2018-03-29T23:05:38.075Z,2.10
2018-03-29T23:08:05.027Z,1.60
2018-03-29T23:10:33.440Z,1.70
2018-03-29T23:13:00.412Z,1.53
2018-03-29T23:15:28.334Z,1.57
2018-03-29T23:17:55.336Z,2.30
2018-03-29T23:20:22.377Z,1.93
2018-03-29T23:22:49.546Z,2.00
2018-03-29T23:25:16.599Z,1.97
2018-03-29T23:27:44.364Z,1.40
2018-03-29T23:30:11.414Z,1.43
2018-03-29T23:32:39.133Z,1.77
2018-03-29T23:35:06.045Z,1.53
2018-03-29T23:37:33.076Z,1.43
2018-03-29T23:40:00.453Z,1.67
2018-03-29T23:42:27.507Z,2.20
2018-03-29T23:44:55.077Z,1.30
2018-03-29T23:47:22.008Z,1.40
2018-03-29T23:49:48.972Z,1.37
2018-03-29T23:52:17.028Z,2.20
2018-03-29T23:54:44.074Z,1.53
2018-03-29T23:57:12.157Z,1.50
2018-03-29T23:59:39.111Z,2.03
